AKDT,Max TemperatureF,Mean TemperatureF,Min TemperatureF,Max Dew PointF,MeanDew PointF,Min DewpointF,Max Humidity, Mean Humidity, Min Humidity, Max Sea Level PressureIn, Mean Sea Level PressureIn, Min Sea Level PressureIn, Max VisibilityMiles, Mean VisibilityMiles, Min VisibilityMiles, Max Wind SpeedMPH, Mean Wind SpeedMPH, Max Gust SpeedMPH,PrecipitationIn, CloudCover, Events, WindDirDegrees
2012-10-1,50,47,44,43,40,36,0,0,0,30.04,29.95,29.79,10,10,7,46,25,54,0.11,7,Rain,163
2012-10-2,55,50,44,47,44,41,0,0,0,29.78,29.68,29.56,10,8,2,44,22,58,0.65,7,Rain,148
2012-10-3,51,49,46,50,46,42,0,0,0,29.74,29.32,29.11,10,7,2,55,30,69,0.17,8,Rain,142
2012-10-4,49,47,44,41,38,36,81,72,58,29.84,29.60,29.31,10,10,8,37,21,45,0.01,7,Rain,176
2012-10-5,53,46,38,42,39,36,89,76,59,30.07,29.96,29.87,10,10,10,28,14,37,T,4,Rain,179
2012-10-6,50,42,34,46,40,36,93,81,56,30.08,29.95,29.78,10,10,5,26,11,35,0.04,7,Rain,135
2012-10-7,52,51,49,52,49,46,0,0,0,29.96,29.84,29.76,10,3,1,31,20,37,1.62,8,Rain,144
2012-10-8,51,50,48,48,47,46,97,91,85,30.01,29.99,29.96,10,10,10,36,24,45,0.00,8,,129
2012-10-9,60,53,46,47,45,42,0,0,0,29.99,29.89,29.77,10,10,10,28,15,35,0.00,4,,151
2012-10-10,57,53,49,47,45,42,0,0,0,29.77,29.62,29.49,10,10,7,28,14,38,0.16,7,Rain,117
2012-10-11,52,50,48,46,44,41,0,0,0,29.51,29.37,29.19,10,10,10,43,25,56,0.01,7,Rain,97
2012-10-12,50,48,45,44,40,34,0,0,0,29.20,29.15,29.12,10,10,10,36,21,47,0.02,8,Rain,20
2012-10-13,40,38,35,34,28,26,81,70,59,29.36,29.29,29.21,10,10,6,32,0,39,T,8,Rain-Snow,338
2012-10-14,42,38,33,33,29,25,0,0,0,29.55,29.44,29.34,10,8,2,41,31,51,T,7,Rain-Snow,329
2012-10-15,39,36,33,30,27,20,88,72,41,29.85,29.72,29.56,10,8,1,31,0,40,0.01,6,Snow,321
2012-10-16,35,33,30,31,24,21,0,0,0,30.12,29.97,29.84,10,8,1,31,20,38,0.06,5,Snow,325
2012-10-17,36,33,30,32,27,22,100,79,44,30.23,30.19,30.12,10,6,1,30,0,37,0.05,7,Snow,331
2012-10-18,36,33,30,30,27,22,0,0,0,30.37,30.28,30.21,10,7,1,33,21,41,0.04,7,Snow,332
2012-10-19,37,35,33,32,29,25,89,76,60,30.54,30.49,30.38,10,10,6,29,15,35,0.01,8,Rain-Snow,324
2012-10-20,41,36,30,33,30,28,92,79,65,30.57,30.53,30.48,10,10,10,18,6,23,T,6,Rain,336
2012-10-21,44,37,29,40,36,27,97,89,75,30.48,30.35,30.31,10,9,5,10,4,18,0.04,7,Rain,220
2012-10-22,47,39,30,40,36,29,100,95,72,30.36,30.33,30.26,10,6,0,12,5,26,0.01,6,Fog-Rain,320
2012-10-23,46,39,32,35,32,26,100,85,55,30.27,30.19,30.10,10,7,0,20,10,23,0.00,3,Fog,101
2012-10-24,45,35,25,31,27,21,88,72,51,30.21,30.18,30.15,10,10,10,12,5,16,0.00,3,,35
2012-10-25,48,38,27,33,28,23,82,70,39,30.28,30.24,30.21,10,10,10,17,7,29,0.00,4,,24
2012-10-26,47,40,33,33,30,27,82,68,44,30.21,30.05,29.89,10,10,10,25,14,32,0.00,3,,29
2012-10-27,46,39,31,33,29,25,0,0,0,29.93,29.87,29.84,10,10,10,22,10,29,0.00,0,,51
2012-10-28,45,34,23,32,27,19,92,77,46,30.12,30.03,29.94,10,10,10,8,0,10,0.00,0,,306
2012-10-29,39,34,28,34,31,27,100,86,75,30.23,30.18,30.12,10,10,10,15,0,17,0.00,7,,316
2012-10-30,37,34,30,31,23,18,86,68,46,30.28,30.23,30.15,10,9,2,26,0,35,0.00,8,Snow,5
2012-10-31,32,29,26,25,22,16,0,0,0,30.13,29.91,29.74,10,6,1,39,25,51,0.09,7,Snow,350